createdAt,value
2023-05-07T00:02:42.767Z,19.70
2023-05-07T00:07:45.524Z,19.60
2023-05-07T00:12:48.032Z,19.50
2023-05-07T00:17:50.200Z,19.60
2023-05-07T00:22:52.483Z,19.40
2023-05-07T00:27:54.620Z,19.70
2023-05-07T00:32:56.938Z,20.00
2023-05-07T00:37:59.429Z,19.90
2023-05-07T00:43:01.578Z,19.80
2023-05-07T00:48:04.757Z,19.80
2023-05-07T00:53:08.581Z,19.70
2023-05-07T00:58:11.129Z,19.80
2023-05-07T01:03:13.390Z,19.60
2023-05-07T01:08:17.853Z,19.80
2023-05-07T01:13:21.761Z,19.70
2023-05-07T01:18:24.528Z,19.40
2023-05-07T01:23:28.932Z,19.40
2023-05-07T01:28:31.280Z,19.60
2023-05-07T01:33:39.496Z,19.70
2023-05-07T01:38:43.641Z,19.60
2023-05-07T01:43:48.283Z,19.40
2023-05-07T01:48:52.000Z,19.20
2023-05-07T01:53:54.898Z,19.40
2023-05-07T01:58:57.140Z,19.60
2023-05-07T02:03:59.483Z,19.40
2023-05-07T02:09:04.604Z,19.60
2023-05-07T02:14:07.167Z,19.60
2023-05-07T02:19:09.482Z,19.40
2023-05-07T02:24:12.108Z,19.30
2023-05-07T02:29:14.603Z,18.90
2023-05-07T02:34:18.329Z,18.60
2023-05-07T02:39:20.823Z,18.80
2023-05-07T02:44:22.922Z,19.00
2023-05-07T02:49:26.993Z,18.90
2023-05-07T02:54:29.580Z,19.10
2023-05-07T02:59:32.165Z,19.00
2023-05-07T03:04:34.563Z,18.20
2023-05-07T03:09:36.948Z,18.00
2023-05-07T03:14:39.428Z,18.50
2023-05-07T03:19:41.582Z,18.80
2023-05-07T03:24:43.743Z,18.70
2023-05-07T03:29:46.112Z,18.70
2023-05-07T03:34:48.504Z,18.70
2023-05-07T03:39:51.016Z,18.70
2023-05-07T03:44:54.195Z,18.50
2023-05-07T03:49:57.185Z,18.50
2023-05-07T03:55:00.780Z,18.40
2023-05-07T04:00:05.624Z,18.60
2023-05-07T04:05:11.689Z,18.50
2023-05-07T04:10:16.272Z,18.50
2023-05-07T04:15:21.043Z,17.90
2023-05-07T04:20:23.235Z,18.00
2023-05-07T04:25:32.117Z,18.60
2023-05-07T04:30:43.288Z,18.60
2023-05-07T04:35:47.387Z,18.60
2023-05-07T04:40:50.755Z,18.50
2023-05-07T04:45:57.103Z,17.70
2023-05-07T04:51:01.972Z,18.10
2023-05-07T04:56:04.521Z,18.40
2023-05-07T05:01:13.823Z,18.70
2023-05-07T05:06:17.167Z,18.80
2023-05-07T05:11:19.338Z,18.60
2023-05-07T05:16:21.831Z,18.10
2023-05-07T05:21:24.761Z,17.40
2023-05-07T05:26:31.127Z,17.70
2023-05-07T05:31:34.902Z,18.30
2023-05-07T05:36:37.489Z,18.00
2023-05-07T05:41:40.191Z,18.40
2023-05-07T05:46:44.185Z,19.00
2023-05-07T05:51:47.222Z,19.30
2023-05-07T05:56:50.658Z,19.30
2023-05-07T06:01:52.982Z,19.30
2023-05-07T06:06:55.647Z,19.50
2023-05-07T06:12:00.680Z,19.70
2023-05-07T06:17:06.491Z,19.80
2023-05-07T06:22:08.839Z,20.00
2023-05-07T06:27:11.734Z,20.10
2023-05-07T06:32:15.387Z,20.20
2023-05-07T06:37:19.703Z,20.20
2023-05-07T06:42:30.935Z,20.30
2023-05-07T06:47:36.344Z,20.30
2023-05-07T06:52:38.662Z,20.10
2023-05-07T06:57:42.124Z,20.50
2023-05-07T07:02:44.873Z,20.90
2023-05-07T07:07:53.893Z,21.30
2023-05-07T07:12:57.090Z,21.70
2023-05-07T07:17:59.448Z,21.80
2023-05-07T07:23:01.878Z,22.00
2023-05-07T07:28:04.200Z,21.90
2023-05-07T07:33:06.962Z,22.20
2023-05-07T07:38:12.140Z,22.60
2023-05-07T07:49:43.620Z,23.40
2023-05-07T07:54:47.146Z,23.40
2023-05-07T07:59:51.280Z,23.40
2023-05-07T08:04:55.112Z,23.60
2023-05-07T08:09:57.546Z,23.60
2023-05-07T08:15:01.058Z,23.70
2023-05-07T08:20:03.584Z,23.70
2023-05-07T08:25:06.627Z,23.90
2023-05-07T08:30:10.427Z,24.50
2023-05-07T08:35:13.275Z,25.10
2023-05-07T08:40:16.385Z,25.00
2023-05-07T08:45:22.101Z,25.00
2023-05-07T08:50:27.213Z,24.20
2023-05-07T08:55:31.311Z,24.40
2023-05-07T09:00:34.744Z,25.40
2023-05-07T09:05:37.711Z,25.90
2023-05-07T09:10:43.235Z,26.00
2023-05-07T09:15:46.287Z,25.90
2023-05-07T09:20:49.078Z,26.30
2023-05-07T09:26:02.732Z,26.90
2023-05-07T09:31:09.760Z,27.20
2023-05-07T09:36:12.355Z,27.30
2023-05-07T09:41:17.166Z,26.90
2023-05-07T09:46:33.603Z,27.50
2023-05-07T09:51:50.516Z,27.70
2023-05-07T09:56:54.815Z,27.90
2023-05-07T10:02:04.811Z,27.90
2023-05-07T10:07:10.992Z,28.60
2023-05-07T10:12:13.980Z,28.60
2023-05-07T10:17:18.985Z,28.10
2023-05-07T10:22:23.604Z,28.70
2023-05-07T10:27:27.157Z,28.80
2023-05-07T10:32:56.435Z,29.70
2023-05-07T10:38:06.117Z,28.50
2023-05-07T10:43:12.502Z,30.00
2023-05-07T10:53:30.762Z,29.80
2023-05-07T10:58:51.990Z,29.70
2023-05-07T11:04:17.097Z,31.50
2023-05-07T11:10:02.256Z,31.30
2023-05-07T11:15:56.532Z,29.30
2023-05-07T11:21:07.547Z,28.70
2023-05-07T11:26:18.880Z,28.00
2023-05-07T11:31:25.087Z,27.20
2023-05-07T11:36:33.505Z,27.00
2023-05-07T11:41:38.606Z,26.70
2023-05-07T11:46:46.164Z,26.50
2023-05-07T11:51:48.960Z,26.40
2023-05-07T11:56:51.164Z,26.30
2023-05-07T12:01:53.388Z,25.90
2023-05-07T12:06:56.959Z,25.60
2023-05-07T12:12:07.115Z,25.30
2023-05-07T12:17:11.102Z,24.70
2023-05-07T12:22:14.607Z,23.60
2023-05-07T12:27:18.579Z,22.90
2023-05-07T12:32:23.294Z,22.90
2023-05-07T12:37:28.603Z,22.10
2023-05-07T12:42:37.814Z,22.10
2023-05-07T12:47:40.518Z,20.50
2023-05-07T12:52:48.178Z,19.90
2023-05-07T12:57:54.233Z,19.20
2023-05-07T13:02:56.582Z,19.00
2023-05-07T13:07:58.959Z,18.80
2023-05-07T13:13:01.244Z,18.50
2023-05-07T13:18:03.801Z,18.60
2023-05-07T13:23:06.102Z,18.50
2023-05-07T13:28:11.334Z,18.30
2023-05-07T13:33:14.551Z,18.30
2023-05-07T13:38:17.416Z,18.10
2023-05-07T13:43:20.247Z,18.30
2023-05-07T13:48:22.519Z,18.90
2023-05-07T13:53:24.780Z,19.30
2023-05-07T13:58:27.137Z,19.60
2023-05-07T14:03:29.359Z,19.50
2023-05-07T14:08:32.067Z,18.40
2023-05-07T14:13:35.517Z,17.40
2023-05-07T14:18:39.785Z,17.00
2023-05-07T14:23:42.096Z,16.70
2023-05-07T14:28:47.574Z,16.60
2023-05-07T14:33:51.664Z,16.50
2023-05-07T14:39:00.279Z,16.50
2023-05-07T14:44:05.071Z,16.50
2023-05-07T14:49:07.943Z,16.70
2023-05-07T14:54:10.322Z,16.70
2023-05-07T14:59:12.951Z,16.60
2023-05-07T15:04:16.073Z,16.70
2023-05-07T15:09:19.261Z,17.00
2023-05-07T15:14:23.191Z,17.30
2023-05-07T15:19:30.075Z,18.30
2023-05-07T15:24:32.669Z,19.00
2023-05-07T15:29:35.011Z,19.00
2023-05-07T15:34:38.324Z,18.90
2023-05-07T15:39:40.784Z,19.60
2023-05-07T15:44:43.291Z,20.20
2023-05-07T15:49:45.478Z,20.40
2023-05-07T15:54:48.601Z,20.50
2023-05-07T15:59:51.353Z,20.30
2023-05-07T16:04:53.792Z,20.00
2023-05-07T16:09:55.948Z,20.00
2023-05-07T16:14:58.170Z,19.80
2023-05-07T16:20:00.536Z,20.00
2023-05-07T16:25:02.828Z,20.30
2023-05-07T16:30:05.759Z,20.40
2023-05-07T16:35:08.669Z,20.60
2023-05-07T16:40:11.606Z,20.80
2023-05-07T16:45:13.890Z,20.90
2023-05-07T16:50:16.407Z,20.80
2023-05-07T16:55:18.947Z,20.70
2023-05-07T17:00:21.187Z,20.90
2023-05-07T17:05:24.469Z,20.90
2023-05-07T17:10:27.050Z,21.00
2023-05-07T17:15:29.197Z,21.10
2023-05-07T17:20:31.488Z,21.20
2023-05-07T17:25:37.228Z,21.20
2023-05-07T17:30:39.304Z,21.20
2023-05-07T17:35:41.425Z,21.20
2023-05-07T17:40:43.634Z,21.10
2023-05-07T17:45:46.109Z,21.10
2023-05-07T17:50:48.554Z,20.90
2023-05-07T17:55:50.837Z,20.50
2023-05-07T18:00:55.605Z,20.50
2023-05-07T18:05:57.881Z,20.60
2023-05-07T18:11:00.217Z,20.70
2023-05-07T18:16:02.578Z,20.50
2023-05-07T18:21:05.555Z,20.60
2023-05-07T18:26:08.581Z,20.70
2023-05-07T18:31:11.137Z,20.70
2023-05-07T18:36:13.396Z,20.70
2023-05-07T18:41:15.522Z,20.70
2023-05-07T18:46:18.140Z,20.70
2023-05-07T18:51:20.652Z,20.80
2023-05-07T18:56:23.162Z,20.80
2023-05-07T19:01:25.493Z,20.60
2023-05-07T19:06:29.429Z,20.60
2023-05-07T19:11:33.448Z,20.80
2023-05-07T19:16:35.785Z,20.50
2023-05-07T19:21:38.173Z,20.10
2023-05-07T19:26:41.305Z,20.20
2023-05-07T19:31:43.460Z,20.20
2023-05-07T19:36:45.825Z,20.10
2023-05-07T19:41:48.502Z,19.80
2023-05-07T19:46:51.318Z,19.40
2023-05-07T19:51:53.917Z,19.20
2023-05-07T19:56:59.814Z,18.50
2023-05-07T20:02:02.032Z,18.50
2023-05-07T20:07:06.001Z,18.60
2023-05-07T20:12:08.472Z,19.00
2023-05-07T20:17:10.735Z,19.10
2023-05-07T20:22:13.121Z,19.40
2023-05-07T20:27:16.356Z,19.60
2023-05-07T20:32:18.951Z,19.70
2023-05-07T20:37:21.496Z,19.70
2023-05-07T20:42:25.302Z,19.70
2023-05-07T20:47:28.050Z,20.00
2023-05-07T20:52:30.217Z,20.10
2023-05-07T20:57:32.407Z,20.20
2023-05-07T21:02:34.590Z,20.10
2023-05-07T21:07:37.273Z,20.00
2023-05-07T21:12:40.056Z,19.80
2023-05-07T21:17:42.295Z,19.80
2023-05-07T21:22:44.402Z,19.70
2023-05-07T21:27:46.985Z,18.90
2023-05-07T21:32:49.807Z,18.30
2023-05-07T21:37:52.024Z,18.40
2023-05-07T21:42:54.608Z,18.00
2023-05-07T21:47:57.117Z,18.00
2023-05-07T21:52:59.222Z,18.40
2023-05-07T21:58:05.501Z,18.00
2023-05-07T22:03:08.435Z,18.20
2023-05-07T22:08:10.581Z,18.60
2023-05-07T22:13:12.840Z,18.90
2023-05-07T22:18:15.165Z,19.00
2023-05-07T22:23:17.674Z,19.20
2023-05-07T22:28:20.106Z,19.60
2023-05-07T22:33:22.356Z,19.50
2023-05-07T22:38:24.688Z,19.30
2023-05-07T22:43:26.815Z,19.60
2023-05-07T22:48:29.845Z,19.80
2023-05-07T22:53:32.009Z,19.70
2023-05-07T22:58:34.494Z,19.90
2023-05-07T23:03:36.920Z,19.70
2023-05-07T23:08:39.306Z,19.80
2023-05-07T23:13:41.677Z,19.90
2023-05-07T23:18:43.824Z,19.70
2023-05-07T23:23:47.980Z,19.30
2023-05-07T23:28:50.424Z,19.10
2023-05-07T23:33:52.501Z,19.10
2023-05-07T23:38:54.602Z,19.20
2023-05-07T23:43:56.740Z,19.10
2023-05-07T23:48:58.836Z,19.10
2023-05-07T23:54:01.167Z,19.20
2023-05-07T23:59:03.498Z,19.50
